sensor_id;sensor_type;location;lat;lon;timestamp;P1;durP1;ratioP1;P2;durP2;ratioP2
12966;SDS011;6548;49.996;8.238;2024-01-10T06:15:18;22.15;;;11.43;;
12966;SDS011;6548;49.996;8.238;2024-01-10T06:17:44;23.15;;;10.55;;
12966;SDS011;6548;49.996;8.238;2024-01-10T06:20:10;21.63;;;10.05;;
12966;SDS011;6548;49.996;8.238;2024-01-10T06:22:35;28.67;;;11.73;;
12966;SDS011;6548;49.996;8.238;2024-01-10T06:25:01;22.35;;;11.60;;
12966;SDS011;6548;49.996;8.238;2024-01-10T06:27:27;28.10;;;12.25;;
12966;SDS011;6548;49.996;8.238;2024-01-10T06:29:53;25.90;;;11.25;;
12966;SDS011;6548;49.996;8.238;2024-01-10T06:32:18;27.60;;;11.40;;
12966;SDS011;6548;49.996;8.238;2024-01-10T06:34:44;21.75;;;11.60;;
12966;SDS011;6548;49.996;8.238;2024-01-10T06:37:10;26.83;;;11.57;;
12966;SDS011;6548;49.996;8.238;2024-01-10T06:39:35;24.02;;;10.93;;
12966;SDS011;6548;49.996;8.238;2024-01-10T06:42:01;24.20;;;11.68;;
12966;SDS011;6548;49.996;8.238;2024-01-10T06:44:28;23.55;;;10.82;;
12966;SDS011;6548;49.996;8.238;2024-01-10T06:46:55;28.02;;;11.02;;
12966;SDS011;6548;49.996;8.238;2024-01-10T06:49:20;19.77;;;10.65;;
12966;SDS011;6548;49.996;8.238;2024-01-10T06:51:46;25.20;;;10.52;;
12966;SDS011;6548;49.996;8.238;2024-01-10T06:54:11;25.08;;;10.20;;
12966;SDS011;6548;49.996;8.238;2024-01-10T06:56:38;28.50;;;11.93;;
12966;SDS011;6548;49.996;8.238;2024-01-10T06:59:04;22.83;;;11.25;;
12966;SDS011;6548;49.996;8.238;2024-01-10T07:01:29;22.80;;;10.18;;
12966;SDS011;6548;49.996;8.238;2024-01-10T07:03:55;23.85;;;11.15;;
12966;SDS011;6548;49.996;8.238;2024-01-10T07:06:21;27.42;;;11.48;;
12966;SDS011;6548;49.996;8.238;2024-01-10T07:08:47;28.05;;;12.55;;
12966;SDS011;6548;49.996;8.238;2024-01-10T07:11:14;25.90;;;12.10;;
12966;SDS011;6548;49.996;8.238;2024-01-10T07:13:40;23.83;;;11.85;;
12966;SDS011;6548;49.996;8.238;2024-01-10T07:16:06;23.98;;;11.27;;
12966;SDS011;6548;49.996;8.238;2024-01-10T07:18:32;30.10;;;12.00;;
12966;SDS011;6548;49.996;8.238;2024-01-10T07:20:58;27.75;;;12.50;;
12966;SDS011;6548;49.996;8.238;2024-01-10T07:23:23;27.40;;;11.45;;
12966;SDS011;6548;49.996;8.238;2024-01-10T07:25:49;27.80;;;11.38;;
12966;SDS011;6548;49.996;8.238;2024-01-10T07:28:15;25.70;;;11.68;;
12966;SDS011;6548;49.996;8.238;2024-01-10T07:30:41;20.30;;;10.63;;
12966;SDS011;6548;49.996;8.238;2024-01-10T07:33:06;28.38;;;12.05;;
12966;SDS011;6548;49.996;8.238;2024-01-10T07:35:33;25.65;;;11.35;;
12966;SDS011;6548;49.996;8.238;2024-01-10T07:37:58;27.70;;;11.32;;
12966;SDS011;6548;49.996;8.238;2024-01-10T07:40:24;29.42;;;12.32;;
12966;SDS011;6548;49.996;8.238;2024-01-10T07:42:49;26.15;;;11.23;;
12966;SDS011;6548;49.996;8.238;2024-01-10T07:45:15;25.23;;;11.80;;
12966;SDS011;6548;49.996;8.238;2024-01-10T07:47:41;25.33;;;11.88;;
12966;SDS011;6548;49.996;8.238;2024-01-10T07:50:10;21.90;;;10.93;;
12966;SDS011;6548;49.996;8.238;2024-01-10T07:52:39;28.23;;;11.75;;
12966;SDS011;6548;49.996;8.238;2024-01-10T07:55:05;29.25;;;13.07;;
12966;SDS011;6548;49.996;8.238;2024-01-10T07:57:31;26.83;;;11.73;;
12966;SDS011;6548;49.996;8.238;2024-01-10T07:59:58;24.55;;;10.88;;
12966;SDS011;6548;49.996;8.238;2024-01-10T08:02:24;26.95;;;11.40;;
12966;SDS011;6548;49.996;8.238;2024-01-10T08:04:50;26.88;;;11.23;;
12966;SDS011;6548;49.996;8.238;2024-01-10T08:07:16;24.67;;;11.82;;
12966;SDS011;6548;49.996;8.238;2024-01-10T08:09:42;29.45;;;12.60;;
12966;SDS011;6548;49.996;8.238;2024-01-10T08:12:07;22.98;;;11.98;;
12966;SDS011;6548;49.996;8.238;2024-01-10T08:14:33;27.27;;;11.52;;
12966;SDS011;6548;49.996;8.238;2024-01-10T08:16:58;28.17;;;12.60;;
12966;SDS011;6548;49.996;8.238;2024-01-10T08:19:25;25.98;;;11.20;;
12966;SDS011;6548;49.996;8.238;2024-01-10T08:21:51;21.23;;;9.90;;
12966;SDS011;6548;49.996;8.238;2024-01-10T08:24:18;23.83;;;10.95;;
12966;SDS011;6548;49.996;8.238;2024-01-10T08:26:44;23.98;;;12.10;;
12966;SDS011;6548;49.996;8.238;2024-01-10T08:29:10;26.80;;;10.70;;
12966;SDS011;6548;49.996;8.238;2024-01-10T08:31:36;22.83;;;11.52;;
12966;SDS011;6548;49.996;8.238;2024-01-10T08:34:01;25.45;;;11.75;;
12966;SDS011;6548;49.996;8.238;2024-01-10T08:36:27;23.58;;;11.10;;
12966;SDS011;6548;49.996;8.238;2024-01-10T08:38:53;31.95;;;12.82;;
12966;SDS011;6548;49.996;8.238;2024-01-10T08:41:18;26.50;;;13.13;;
12966;SDS011;6548;49.996;8.238;2024-01-10T08:43:45;27.00;;;12.70;;
12966;SDS011;6548;49.996;8.238;2024-01-10T08:46:11;24.13;;;11.48;;
12966;SDS011;6548;49.996;8.238;2024-01-10T08:48:37;30.25;;;13.80;;
12966;SDS011;6548;49.996;8.238;2024-01-10T08:51:02;24.17;;;12.23;;
12966;SDS011;6548;49.996;8.238;2024-01-10T08:53:28;27.40;;;12.80;;
12966;SDS011;6548;49.996;8.238;2024-01-10T08:55:54;30.60;;;12.93;;
12966;SDS011;6548;49.996;8.238;2024-01-10T08:58:19;25.80;;;12.98;;
12966;SDS011;6548;49.996;8.238;2024-01-10T09:00:45;29.67;;;12.68;;
12966;SDS011;6548;49.996;8.238;2024-01-10T09:03:11;24.73;;;11.95;;
12966;SDS011;6548;49.996;8.238;2024-01-10T09:05:37;28.60;;;11.25;;
12966;SDS011;6548;49.996;8.238;2024-01-10T09:08:03;26.92;;;12.50;;
12966;SDS011;6548;49.996;8.238;2024-01-10T09:10:28;24.17;;;11.88;;
12966;SDS011;6548;49.996;8.238;2024-01-10T09:12:54;28.25;;;13.18;;
12966;SDS011;6548;49.996;8.238;2024-01-10T09:15:19;27.02;;;12.55;;
12966;SDS011;6548;49.996;8.238;2024-01-10T09:17:45;26.05;;;10.95;;
12966;SDS011;6548;49.996;8.238;2024-01-10T09:20:11;27.13;;;11.38;;
12966;SDS011;6548;49.996;8.238;2024-01-10T09:22:38;22.95;;;11.88;;
12966;SDS011;6548;49.996;8.238;2024-01-10T09:25:04;26.27;;;12.00;;
12966;SDS011;6548;49.996;8.238;2024-01-10T09:27:34;29.90;;;12.27;;
12966;SDS011;6548;49.996;8.238;2024-01-10T09:30:00;26.95;;;12.85;;
12966;SDS011;6548;49.996;8.238;2024-01-10T09:32:27;29.00;;;13.27;;
12966;SDS011;6548;49.996;8.238;2024-01-10T09:34:54;28.90;;;12.00;;
12966;SDS011;6548;49.996;8.238;2024-01-10T09:37:20;26.92;;;11.93;;
12966;SDS011;6548;49.996;8.238;2024-01-10T09:39:46;24.88;;;11.05;;
12966;SDS011;6548;49.996;8.238;2024-01-10T09:42:11;25.33;;;12.57;;
12966;SDS011;6548;49.996;8.238;2024-01-10T09:44:39;30.90;;;13.07;;
12966;SDS011;6548;49.996;8.238;2024-01-10T09:47:05;24.65;;;11.13;;
12966;SDS011;6548;49.996;8.238;2024-01-10T09:49:31;25.38;;;11.30;;
12966;SDS011;6548;49.996;8.238;2024-01-10T09:51:58;26.20;;;12.50;;
12966;SDS011;6548;49.996;8.238;2024-01-10T09:54:29;29.20;;;12.45;;
12966;SDS011;6548;49.996;8.238;2024-01-10T09:56:56;24.08;;;12.25;;
12966;SDS011;6548;49.996;8.238;2024-01-10T09:59:24;27.33;;;12.30;;
12966;SDS011;6548;49.996;8.238;2024-01-10T10:01:53;27.58;;;12.23;;
12966;SDS011;6548;49.996;8.238;2024-01-10T10:04:21;28.95;;;12.45;;
12966;SDS011;6548;49.996;8.238;2024-01-10T10:06:49;24.50;;;11.48;;
12966;SDS011;6548;49.996;8.238;2024-01-10T10:09:23;26.67;;;10.95;;
12966;SDS011;6548;49.996;8.238;2024-01-10T10:11:53;26.13;;;12.07;;
12966;SDS011;6548;49.996;8.238;2024-01-10T10:14:19;25.58;;;12.38;;
12966;SDS011;6548;49.996;8.238;2024-01-10T10:16:45;22.52;;;11.93;;
12966;SDS011;6548;49.996;8.238;2024-01-10T10:19:10;26.25;;;11.80;;
12966;SDS011;6548;49.996;8.238;2024-01-10T10:21:37;23.42;;;11.82;;
12966;SDS011;6548;49.996;8.238;2024-01-10T10:24:04;23.98;;;11.50;;
12966;SDS011;6548;49.996;8.238;2024-01-10T10:26:31;23.55;;;11.55;;
12966;SDS011;6548;49.996;8.238;2024-01-10T10:28:58;21.77;;;10.38;;
12966;SDS011;6548;49.996;8.238;2024-01-10T10:31:24;33.85;;;13.27;;
12966;SDS011;6548;49.996;8.238;2024-01-10T10:33:51;29.02;;;13.38;;
12966;SDS011;6548;49.996;8.238;2024-01-10T10:36:17;31.42;;;12.70;;
12966;SDS011;6548;49.996;8.238;2024-01-10T10:38:43;29.85;;;13.23;;
12966;SDS011;6548;49.996;8.238;2024-01-10T10:41:10;26.05;;;11.85;;
12966;SDS011;6548;49.996;8.238;2024-01-10T10:43:37;27.80;;;13.75;;
12966;SDS011;6548;49.996;8.238;2024-01-10T10:46:07;29.40;;;12.32;;
12966;SDS011;6548;49.996;8.238;2024-01-10T10:48:35;25.95;;;12.82;;
12966;SDS011;6548;49.996;8.238;2024-01-10T10:53:39;30.13;;;13.23;;
12966;SDS011;6548;49.996;8.238;2024-01-10T10:56:10;30.65;;;13.85;;
12966;SDS011;6548;49.996;8.238;2024-01-10T10:58:40;32.20;;;14.35;;
12966;SDS011;6548;49.996;8.238;2024-01-10T11:01:07;26.00;;;13.57;;
12966;SDS011;6548;49.996;8.238;2024-01-10T11:03:37;26.85;;;13.25;;
12966;SDS011;6548;49.996;8.238;2024-01-10T11:06:12;31.30;;;14.30;;
12966;SDS011;6548;49.996;8.238;2024-01-10T11:08:54;25.50;;;12.00;;
12966;SDS011;6548;49.996;8.238;2024-01-10T11:11:48;31.52;;;12.63;;
12966;SDS011;6548;49.996;8.238;2024-01-10T11:14:29;25.58;;;12.50;;
12966;SDS011;6548;49.996;8.238;2024-01-10T11:17:14;32.78;;;13.88;;
12966;SDS011;6548;49.996;8.238;2024-01-10T11:25:51;27.92;;;12.73;;
12966;SDS011;6548;49.996;8.238;2024-01-10T11:28:16;29.00;;;12.80;;
12966;SDS011;6548;49.996;8.238;2024-01-10T11:30:49;28.10;;;12.70;;
12966;SDS011;6548;49.996;8.238;2024-01-10T11:33:19;24.33;;;11.88;;
12966;SDS011;6548;49.996;8.238;2024-01-10T11:41:24;25.73;;;12.88;;
12966;SDS011;6548;49.996;8.238;2024-01-10T11:46:56;23.35;;;12.02;;
12966;SDS011;6548;49.996;8.238;2024-01-10T11:49:22;26.27;;;12.35;;
12966;SDS011;6548;49.996;8.238;2024-01-10T11:51:49;30.90;;;13.60;;
12966;SDS011;6548;49.996;8.238;2024-01-10T11:57:03;22.30;;;12.75;;
12966;SDS011;6548;49.996;8.238;2024-01-10T11:59:53;24.60;;;13.45;;
12966;SDS011;6548;49.996;8.238;2024-01-10T12:02:21;25.27;;;13.38;;
12966;SDS011;6548;49.996;8.238;2024-01-10T12:04:48;23.88;;;12.45;;
12966;SDS011;6548;49.996;8.238;2024-01-10T12:07:15;27.10;;;12.68;;
12966;SDS011;6548;49.996;8.238;2024-01-10T12:09:41;24.25;;;11.43;;
12966;SDS011;6548;49.996;8.238;2024-01-10T12:12:07;19.83;;;10.18;;
12966;SDS011;6548;49.996;8.238;2024-01-10T12:14:34;25.73;;;11.27;;
12966;SDS011;6548;49.996;8.238;2024-01-10T12:16:59;22.92;;;11.52;;
12966;SDS011;6548;49.996;8.238;2024-01-10T12:19:25;24.55;;;12.38;;
12966;SDS011;6548;49.996;8.238;2024-01-10T12:21:51;26.85;;;14.30;;
12966;SDS011;6548;49.996;8.238;2024-01-10T12:24:21;22.85;;;12.52;;
12966;SDS011;6548;49.996;8.238;2024-01-10T12:26:47;27.10;;;12.55;;
12966;SDS011;6548;49.996;8.238;2024-01-10T12:29:16;23.48;;;11.48;;
12966;SDS011;6548;49.996;8.238;2024-01-10T12:31:43;24.23;;;11.90;;
12966;SDS011;6548;49.996;8.238;2024-01-10T12:34:10;21.25;;;11.65;;
12966;SDS011;6548;49.996;8.238;2024-01-10T12:36:36;24.00;;;12.77;;
12966;SDS011;6548;49.996;8.238;2024-01-10T12:39:02;26.77;;;12.27;;
12966;SDS011;6548;49.996;8.238;2024-01-10T12:41:29;20.42;;;10.85;;
12966;SDS011;6548;49.996;8.238;2024-01-10T12:43:55;22.05;;;11.80;;
12966;SDS011;6548;49.996;8.238;2024-01-10T12:46:21;21.67;;;11.02;;
12966;SDS011;6548;49.996;8.238;2024-01-10T12:48:58;23.45;;;12.82;;
12966;SDS011;6548;49.996;8.238;2024-01-10T12:51:28;18.20;;;10.32;;
12966;SDS011;6548;49.996;8.238;2024-01-10T12:53:54;23.75;;;12.57;;
12966;SDS011;6548;49.996;8.238;2024-01-10T12:56:21;22.15;;;11.20;;
12966;SDS011;6548;49.996;8.238;2024-01-10T12:58:47;25.52;;;12.15;;
12966;SDS011;6548;49.996;8.238;2024-01-10T13:01:12;22.60;;;11.90;;
12966;SDS011;6548;49.996;8.238;2024-01-10T13:03:38;22.67;;;11.82;;
12966;SDS011;6548;49.996;8.238;2024-01-10T13:06:04;24.52;;;12.27;;
12966;SDS011;6548;49.996;8.238;2024-01-10T13:08:30;22.88;;;11.55;;
12966;SDS011;6548;49.996;8.238;2024-01-10T13:10:57;26.40;;;12.70;;
12966;SDS011;6548;49.996;8.238;2024-01-10T13:13:22;24.40;;;12.20;;
12966;SDS011;6548;49.996;8.238;2024-01-10T13:15:48;25.05;;;12.35;;
12966;SDS011;6548;49.996;8.238;2024-01-10T13:18:14;24.33;;;11.65;;
12966;SDS011;6548;49.996;8.238;2024-01-10T13:20:40;25.17;;;12.43;;
12966;SDS011;6548;49.996;8.238;2024-01-10T13:23:09;26.30;;;11.65;;
12966;SDS011;6548;49.996;8.238;2024-01-10T13:25:35;22.35;;;10.40;;
12966;SDS011;6548;49.996;8.238;2024-01-10T13:28:02;22.40;;;11.43;;
12966;SDS011;6548;49.996;8.238;2024-01-10T13:30:28;23.00;;;11.48;;
12966;SDS011;6548;49.996;8.238;2024-01-10T13:32:53;22.83;;;11.45;;
12966;SDS011;6548;49.996;8.238;2024-01-10T13:35:19;26.80;;;11.75;;
12966;SDS011;6548;49.996;8.238;2024-01-10T13:37:45;25.80;;;11.32;;
12966;SDS011;6548;49.996;8.238;2024-01-10T13:40:11;19.98;;;9.77;;
12966;SDS011;6548;49.996;8.238;2024-01-10T13:42:40;23.35;;;10.57;;
12966;SDS011;6548;49.996;8.238;2024-01-10T13:45:06;20.13;;;11.32;;
12966;SDS011;6548;49.996;8.238;2024-01-10T13:47:33;24.40;;;10.48;;
12966;SDS011;6548;49.996;8.238;2024-01-10T13:49:59;19.05;;;11.40;;
12966;SDS011;6548;49.996;8.238;2024-01-10T13:52:25;23.48;;;11.70;;
12966;SDS011;6548;49.996;8.238;2024-01-10T13:54:51;22.52;;;10.88;;
12966;SDS011;6548;49.996;8.238;2024-01-10T13:57:17;21.55;;;11.10;;
12966;SDS011;6548;49.996;8.238;2024-01-10T13:59:43;20.63;;;11.15;;
12966;SDS011;6548;49.996;8.238;2024-01-10T14:02:09;24.83;;;11.20;;
12966;SDS011;6548;49.996;8.238;2024-01-10T14:04:35;20.38;;;9.85;;
12966;SDS011;6548;49.996;8.238;2024-01-10T14:07:01;23.25;;;10.65;;
12966;SDS011;6548;49.996;8.238;2024-01-10T14:09:28;22.80;;;11.18;;
12966;SDS011;6548;49.996;8.238;2024-01-10T14:11:54;22.95;;;10.70;;
12966;SDS011;6548;49.996;8.238;2024-01-10T14:14:20;23.48;;;10.68;;
12966;SDS011;6548;49.996;8.238;2024-01-10T14:16:45;25.33;;;11.50;;
12966;SDS011;6548;49.996;8.238;2024-01-10T14:19:11;23.08;;;10.55;;
12966;SDS011;6548;49.996;8.238;2024-01-10T14:21:36;22.67;;;11.25;;
12966;SDS011;6548;49.996;8.238;2024-01-10T14:24:02;20.42;;;10.02;;
12966;SDS011;6548;49.996;8.238;2024-01-10T14:26:28;21.15;;;10.82;;
12966;SDS011;6548;49.996;8.238;2024-01-10T14:28:53;23.98;;;12.27;;
12966;SDS011;6548;49.996;8.238;2024-01-10T14:37:43;18.92;;;9.68;;
12966;SDS011;6548;49.996;8.238;2024-01-10T14:40:09;24.30;;;9.75;;
12966;SDS011;6548;49.996;8.238;2024-01-10T14:45:51;20.58;;;10.10;;
12966;SDS011;6548;49.996;8.238;2024-01-10T14:48:16;20.60;;;10.68;;
12966;SDS011;6548;49.996;8.238;2024-01-10T14:50:42;22.92;;;10.43;;
12966;SDS011;6548;49.996;8.238;2024-01-10T14:53:07;19.92;;;10.07;;
12966;SDS011;6548;49.996;8.238;2024-01-10T14:55:33;22.55;;;10.15;;
12966;SDS011;6548;49.996;8.238;2024-01-10T14:57:59;24.27;;;10.60;;
12966;SDS011;6548;49.996;8.238;2024-01-10T15:12:17;23.02;;;11.57;;
12966;SDS011;6548;49.996;8.238;2024-01-10T15:14:42;28.77;;;11.98;;
12966;SDS011;6548;49.996;8.238;2024-01-10T15:17:08;23.58;;;11.07;;
12966;SDS011;6548;49.996;8.238;2024-01-10T15:19:34;24.38;;;11.18;;
12966;SDS011;6548;49.996;8.238;2024-01-10T15:22:00;27.88;;;12.05;;
12966;SDS011;6548;49.996;8.238;2024-01-10T15:24:27;21.35;;;11.50;;
12966;SDS011;6548;49.996;8.238;2024-01-10T15:26:53;23.17;;;11.48;;
12966;SDS011;6548;49.996;8.238;2024-01-10T15:29:19;25.10;;;10.88;;
12966;SDS011;6548;49.996;8.238;2024-01-10T15:31:44;21.48;;;11.40;;
12966;SDS011;6548;49.996;8.238;2024-01-10T15:34:10;23.15;;;11.65;;
12966;SDS011;6548;49.996;8.238;2024-01-10T15:36:39;27.75;;;12.68;;
12966;SDS011;6548;49.996;8.238;2024-01-10T15:39:06;25.58;;;13.55;;
12966;SDS011;6548;49.996;8.238;2024-01-10T15:41:31;26.90;;;12.02;;
12966;SDS011;6548;49.996;8.238;2024-01-10T15:43:57;22.58;;;11.23;;
12966;SDS011;6548;49.996;8.238;2024-01-10T15:46:22;29.60;;;12.45;;
12966;SDS011;6548;49.996;8.238;2024-01-10T15:48:49;21.08;;;11.27;;
12966;SDS011;6548;49.996;8.238;2024-01-10T15:51:14;25.00;;;12.52;;
12966;SDS011;6548;49.996;8.238;2024-01-10T15:53:40;24.35;;;11.18;;
12966;SDS011;6548;49.996;8.238;2024-01-10T15:56:09;22.55;;;12.25;;
12966;SDS011;6548;49.996;8.238;2024-01-10T15:58:35;24.52;;;11.50;;
12966;SDS011;6548;49.996;8.238;2024-01-10T16:01:00;22.77;;;12.32;;
12966;SDS011;6548;49.996;8.238;2024-01-10T16:03:26;31.52;;;13.27;;
12966;SDS011;6548;49.996;8.238;2024-01-10T16:05:51;24.15;;;12.70;;
12966;SDS011;6548;49.996;8.238;2024-01-10T16:08:18;23.52;;;11.98;;
12966;SDS011;6548;49.996;8.238;2024-01-10T16:10:46;22.73;;;11.68;;
12966;SDS011;6548;49.996;8.238;2024-01-10T16:13:12;23.42;;;11.38;;
12966;SDS011;6548;49.996;8.238;2024-01-10T16:15:38;23.08;;;10.63;;
12966;SDS011;6548;49.996;8.238;2024-01-10T16:18:03;23.35;;;11.63;;
12966;SDS011;6548;49.996;8.238;2024-01-10T16:20:29;23.23;;;11.57;;
12966;SDS011;6548;49.996;8.238;2024-01-10T16:22:55;20.55;;;10.60;;
12966;SDS011;6548;49.996;8.238;2024-01-10T16:25:29;20.10;;;10.30;;
12966;SDS011;6548;49.996;8.238;2024-01-10T16:27:55;32.88;;;16.48;;
12966;SDS011;6548;49.996;8.238;2024-01-10T16:30:20;44.33;;;20.17;;
12966;SDS011;6548;49.996;8.238;2024-01-10T16:32:46;61.00;;;25.63;;
12966;SDS011;6548;49.996;8.238;2024-01-10T16:35:11;119.30;;;46.17;;
12966;SDS011;6548;49.996;8.238;2024-01-10T16:37:37;149.40;;;65.65;;
12966;SDS011;6548;49.996;8.238;2024-01-10T16:40:16;144.90;;;66.65;;
12966;SDS011;6548;49.996;8.238;2024-01-10T16:43:19;110.95;;;56.67;;
12966;SDS011;6548;49.996;8.238;2024-01-10T16:46:18;61.15;;;35.30;;
12966;SDS011;6548;49.996;8.238;2024-01-10T16:49:14;43.53;;;22.00;;
12966;SDS011;6548;49.996;8.238;2024-01-10T16:52:53;27.90;;;14.52;;
12966;SDS011;6548;49.996;8.238;2024-01-10T19:39:24;36.88;;;20.10;;
12966;SDS011;6548;49.996;8.238;2024-01-10T19:42:38;47.60;;;22.83;;
12966;SDS011;6548;49.996;8.238;2024-01-10T19:45:06;45.30;;;24.90;;
12966;SDS011;6548;49.996;8.238;2024-01-10T19:47:32;45.90;;;23.92;;
12966;SDS011;6548;49.996;8.238;2024-01-10T19:49:59;51.75;;;25.38;;
12966;SDS011;6548;49.996;8.238;2024-01-10T19:52:24;46.17;;;22.40;;
12966;SDS011;6548;49.996;8.238;2024-01-10T19:54:50;45.63;;;22.15;;
12966;SDS011;6548;49.996;8.238;2024-01-10T19:57:15;40.92;;;19.58;;
12966;SDS011;6548;49.996;8.238;2024-01-10T19:59:41;40.42;;;19.33;;
12966;SDS011;6548;49.996;8.238;2024-01-10T20:02:07;41.55;;;17.80;;
12966;SDS011;6548;49.996;8.238;2024-01-10T20:04:35;33.30;;;16.17;;
12966;SDS011;6548;49.996;8.238;2024-01-10T20:07:01;32.70;;;16.23;;
12966;SDS011;6548;49.996;8.238;2024-01-10T20:09:27;34.45;;;18.50;;
12966;SDS011;6548;49.996;8.238;2024-01-10T20:11:53;40.33;;;18.23;;
12966;SDS011;6548;49.996;8.238;2024-01-10T20:14:18;40.22;;;17.45;;
12966;SDS011;6548;49.996;8.238;2024-01-10T20:16:44;37.78;;;16.98;;
12966;SDS011;6548;49.996;8.238;2024-01-10T20:19:10;33.92;;;17.60;;
12966;SDS011;6548;49.996;8.238;2024-01-10T20:21:35;35.20;;;16.45;;
12966;SDS011;6548;49.996;8.238;2024-01-10T20:24:02;35.00;;;15.38;;
12966;SDS011;6548;49.996;8.238;2024-01-10T20:26:27;34.53;;;14.73;;
12966;SDS011;6548;49.996;8.238;2024-01-10T20:28:53;30.60;;;15.68;;
12966;SDS011;6548;49.996;8.238;2024-01-10T20:31:18;32.63;;;15.00;;
12966;SDS011;6548;49.996;8.238;2024-01-10T20:33:44;33.97;;;14.95;;
12966;SDS011;6548;49.996;8.238;2024-01-10T20:36:10;29.90;;;14.07;;
12966;SDS011;6548;49.996;8.238;2024-01-10T20:38:37;31.45;;;14.05;;
12966;SDS011;6548;49.996;8.238;2024-01-10T20:41:02;33.05;;;15.50;;
12966;SDS011;6548;49.996;8.238;2024-01-10T20:43:28;31.88;;;14.48;;
12966;SDS011;6548;49.996;8.238;2024-01-10T20:45:54;34.85;;;15.50;;
12966;SDS011;6548;49.996;8.238;2024-01-10T20:48:19;31.00;;;14.45;;
12966;SDS011;6548;49.996;8.238;2024-01-10T20:50:45;33.85;;;15.65;;
12966;SDS011;6548;49.996;8.238;2024-01-10T20:53:11;33.00;;;13.73;;
12966;SDS011;6548;49.996;8.238;2024-01-10T20:55:40;33.90;;;16.42;;
12966;SDS011;6548;49.996;8.238;2024-01-10T20:58:06;31.17;;;13.80;;
12966;SDS011;6548;49.996;8.238;2024-01-10T21:00:32;28.63;;;14.20;;
